Time;durP1;ratioP1;P1;durP2;ratioP2;P2;SDS_P1;SDS_P2;PMS_P1;PMS_P2;Temp;Humidity;BMP_temperature;BMP_pressure;BME280_temperature;BME280_humidity;BME280_pressure;Samples;Min_cycle;Max_cycle;Signal;HPM_P1;HPM_P2
2022/04/14 00:00:55;;;;;;;8.27;4.50;;;10.60;99.90;;;;;;4947406;28;20486;-96
2022/04/14 00:03:24;;;;;;;7.13;4.28;;;10.60;99.90;;;;;;4945527;29;20546;-95
2022/04/14 00:05:58;;;;;;;5.57;3.80;;;10.60;99.90;;;;;;4946699;28;20038;-94
2022/04/14 00:08:32;;;;;;;6.95;3.78;;;10.60;99.90;;;;;;4960951;28;20655;-94
2022/04/14 00:11:04;;;;;;;7.95;4.38;;;10.60;99.90;;;;;;4952267;28;20511;-93
2022/04/14 00:13:30;;;;;;;6.65;4.28;;;10.60;99.90;;;;;;4964915;28;20039;-96
2022/04/14 00:16:06;;;;;;;10.85;4.28;;;10.70;99.90;;;;;;4965801;28;20031;-95
2022/04/14 00:18:50;;;;;;;8.15;4.28;;;10.60;99.90;;;;;;4963031;28;20386;-95
2022/04/14 00:21:21;;;;;;;8.18;4.07;;;10.60;99.90;;;;;;4958644;28;20034;-93
2022/04/14 00:23:50;;;;;;;6.95;3.95;;;10.60;99.90;;;;;;4941459;29;20023;-94
2022/04/14 00:26:18;;;;;;;10.02;4.18;;;10.60;99.90;;;;;;4952971;28;20427;-95
2022/04/14 00:28:46;;;;;;;7.90;4.22;;;10.60;99.90;;;;;;4962303;28;20045;-93
2022/04/14 00:31:12;;;;;;;12.95;4.47;;;10.60;99.90;;;;;;4957640;28;20032;-96
2022/04/14 00:33:44;;;;;;;8.82;4.80;;;10.60;99.90;;;;;;4977484;28;20019;-95
2022/04/14 00:36:09;;;;;;;7.18;4.32;;;10.60;99.90;;;;;;4956014;28;20035;-96
2022/04/14 00:38:38;;;;;;;9.05;4.10;;;10.70;99.90;;;;;;4963486;28;20034;-95
2022/04/14 00:41:16;;;;;;;9.38;4.18;;;10.70;99.90;;;;;;4948138;29;20034;-95
2022/04/14 00:43:52;;;;;;;8.10;3.70;;;10.70;99.90;;;;;;4941349;29;20034;-94
2022/04/14 00:46:36;;;;;;;5.00;3.97;;;10.70;99.90;;;;;;4947188;29;20031;-94
2022/04/14 00:49:16;;;;;;;8.15;4.28;;;10.60;99.90;;;;;;4942691;29;20507;-96
2022/04/14 00:52:03;;;;;;;5.15;3.83;;;10.70;99.90;;;;;;4969721;28;20034;-96
2022/04/14 00:54:30;;;;;;;9.05;4.28;;;10.70;99.90;;;;;;4980883;28;20390;-95
2022/04/14 00:57:04;;;;;;;13.88;5.75;;;10.70;99.90;;;;;;4943329;29;20648;-96
2022/04/14 00:59:38;;;;;;;6.10;4.55;;;10.70;99.90;;;;;;4940944;29;20042;-94
2022/04/14 01:02:24;;;;;;;10.45;6.20;;;10.70;99.90;;;;;;4945614;29;20086;-94
2022/04/14 01:04:56;;;;;;;21.83;11.65;;;10.80;99.90;;;;;;4943093;28;20061;-96
2022/04/14 01:08:05;;;;;;;18.15;15.05;;;10.80;99.90;;;;;;4956382;28;20126;-94
2022/04/14 01:10:38;;;;;;;13.88;5.50;;;10.90;99.90;;;;;;4962213;28;20070;-91
2022/04/14 01:13:04;;;;;;;9.52;4.68;;;10.80;99.90;;;;;;4952032;28;20031;-94
2022/04/14 01:16:03;;;;;;;9.45;5.75;;;10.80;99.90;;;;;;4958958;28;20058;-94
2022/04/14 01:18:47;;;;;;;5.30;4.15;;;10.90;99.90;;;;;;4939017;29;20039;-94
2022/04/14 01:21:17;;;;;;;15.30;7.43;;;10.80;99.90;;;;;;4951062;28;20027;-94
2022/04/14 01:23:55;;;;;;;7.32;4.97;;;10.90;99.90;;;;;;4958870;28;20076;-95
2022/04/14 01:26:29;;;;;;;8.52;4.00;;;10.80;99.90;;;;;;4972521;28;20066;-95
2022/04/14 01:29:46;;;;;;;13.23;5.13;;;10.90;99.90;;;;;;4939267;29;20063;-93
2022/04/14 01:32:21;;;;;;;9.20;4.43;;;11.00;99.90;;;;;;4948964;29;20019;-93
2022/04/14 01:34:53;;;;;;;7.57;4.20;;;11.10;99.90;;;;;;4958239;28;20537;-93
2022/04/14 01:37:22;;;;;;;11.88;6.28;;;11.10;99.90;;;;;;4958790;28;20106;-95
2022/04/14 01:40:04;;;;;;;9.73;5.40;;;11.10;99.90;;;;;;4955209;28;20031;-92
2022/04/14 01:42:33;;;;;;;8.43;4.57;;;11.00;99.90;;;;;;4947814;28;20441;-91
2022/04/14 01:45:08;;;;;;;6.18;4.50;;;10.90;99.90;;;;;;4942515;28;20130;-91
2022/04/14 01:47:45;;;;;;;10.70;5.32;;;10.80;99.90;;;;;;4949606;28;20019;-92
2022/04/14 01:50:26;;;;;;;9.13;4.63;;;10.70;99.90;;;;;;4956204;28;20486;-92
2022/04/14 01:52:58;;;;;;;8.77;5.90;;;10.70;99.90;;;;;;4956247;28;20078;-91
2022/04/14 01:55:38;;;;;;;9.27;5.47;;;10.60;99.90;;;;;;4949474;28;20031;-91
2022/04/14 01:58:45;;;;;;;8.90;6.07;;;10.60;99.90;;;;;;4971003;28;20097;-92
2022/04/14 02:01:29;;;;;;;9.93;5.75;;;10.60;99.90;;;;;;4966029;28;20030;-92
2022/04/14 02:04:15;;;;;;;12.25;4.47;;;10.50;99.90;;;;;;4938140;29;20035;-92
2022/04/14 02:06:41;;;;;;;9.35;3.90;;;10.50;99.90;;;;;;4964526;28;20111;-91
2022/04/14 02:09:14;;;;;;;8.48;3.83;;;10.50;99.90;;;;;;4937676;29;20059;-92
2022/04/14 02:11:40;;;;;;;10.20;4.63;;;10.50;99.90;;;;;;4944798;29;20054;-92
2022/04/14 02:14:06;;;;;;;7.32;4.82;;;10.40;99.90;;;;;;4938545;29;20027;-92
2022/04/14 02:16:35;;;;;;;7.60;4.18;;;10.50;99.90;;;;;;4949923;28;20043;-91
2022/04/14 02:19:01;;;;;;;8.48;4.03;;;10.50;99.90;;;;;;4974308;28;20023;-92
2022/04/14 02:21:26;;;;;;;10.18;4.10;;;10.50;99.90;;;;;;4945814;28;20032;-90
2022/04/14 02:23:52;;;;;;;10.43;4.45;;;10.50;99.90;;;;;;4950702;28;20026;-90
2022/04/14 02:26:19;;;;;;;10.35;4.28;;;10.40;99.90;;;;;;4950080;28;20046;-90
2022/04/14 02:28:45;;;;;;;7.18;4.88;;;10.20;99.90;;;;;;4957005;28;20031;-90
2022/04/14 02:31:16;;;;;;;8.68;5.40;;;10.20;99.90;;;;;;4966601;28;20031;-94
2022/04/14 02:33:42;;;;;;;9.43;5.35;;;10.00;99.90;;;;;;4977419;28;20470;-95
2022/04/14 02:36:10;;;;;;;7.57;4.97;;;9.90;99.90;;;;;;4952696;28;20046;-95
2022/04/14 02:38:36;;;;;;;10.20;4.78;;;9.80;99.90;;;;;;4954987;29;20421;-95
2022/04/14 02:41:02;;;;;;;10.35;5.30;;;9.70;99.90;;;;;;4966817;28;20174;-95
2022/04/14 02:43:28;;;;;;;7.60;4.75;;;9.70;99.90;;;;;;4955636;28;20054;-96
2022/04/14 02:45:54;;;;;;;9.35;5.20;;;9.60;99.90;;;;;;4976732;28;20070;-96
2022/04/14 02:48:20;;;;;;;11.35;6.07;;;9.60;99.90;;;;;;4977182;28;20031;-95
2022/04/14 02:50:46;;;;;;;9.35;5.43;;;9.50;99.90;;;;;;4953611;29;20031;-96
2022/04/14 02:53:12;;;;;;;9.68;5.55;;;9.50;99.90;;;;;;4971857;28;20026;-95
2022/04/14 02:55:38;;;;;;;12.57;6.18;;;9.40;99.90;;;;;;4944255;29;20479;-95
2022/04/14 02:58:04;;;;;;;10.20;5.43;;;9.40;99.90;;;;;;4945961;29;20055;-96
2022/04/14 03:00:41;;;;;;;7.10;5.15;;;9.40;99.90;;;;;;4946202;28;20039;-96
2022/04/14 03:03:07;;;;;;;7.78;5.15;;;9.30;99.90;;;;;;4950738;28;20077;-96
2022/04/14 03:05:33;;;;;;;8.57;5.50;;;9.30;99.90;;;;;;4964361;28;20210;-96
2022/04/14 03:08:05;;;;;;;12.13;4.97;;;9.30;99.90;;;;;;4962549;28;20031;-96
2022/04/14 03:10:31;;;;;;;7.22;3.88;;;9.20;99.90;;;;;;4955962;29;20055;-96
2022/04/14 03:13:00;;;;;;;10.73;3.67;;;9.10;99.90;;;;;;4946358;29;20035;-96
2022/04/14 03:15:26;;;;;;;5.07;3.15;;;9.20;99.90;;;;;;4951696;28;20031;-95
2022/04/14 03:17:55;;;;;;;6.15;3.78;;;9.10;99.90;;;;;;4964494;28;20082;-96
2022/04/14 03:20:21;;;;;;;6.43;3.47;;;9.20;99.90;;;;;;4964650;28;20445;-96
2022/04/14 03:22:51;;;;;;;5.75;3.95;;;9.20;99.90;;;;;;4956372;29;20015;-96
2022/04/14 03:25:17;;;;;;;11.02;4.13;;;9.20;99.90;;;;;;4948854;28;20020;-95
2022/04/14 03:27:45;;;;;;;11.52;4.50;;;9.30;99.90;;;;;;4959444;28;20029;-95
2022/04/14 03:30:12;;;;;;;8.45;4.68;;;9.30;99.90;;;;;;4965750;28;20030;-96
2022/04/14 03:32:42;;;;;;;10.80;4.60;;;9.40;99.90;;;;;;4961429;28;20026;-96
2022/04/14 03:35:08;;;;;;;12.35;4.85;;;9.40;99.90;;;;;;4964289;28;20077;-95
2022/04/14 03:37:40;;;;;;;8.93;4.43;;;9.40;99.90;;;;;;4956820;29;20023;-96
2022/04/14 03:40:07;;;;;;;7.30;4.30;;;9.40;99.90;;;;;;4948534;28;20027;-95
2022/04/14 03:42:35;;;;;;;6.85;4.03;;;9.30;99.90;;;;;;4968599;28;20516;-95
2022/04/14 03:45:02;;;;;;;6.97;4.10;;;9.30;99.90;;;;;;4964050;28;20027;-95
2022/04/14 03:47:27;;;;;;;7.88;3.80;;;9.20;99.90;;;;;;4979880;28;20031;-95
2022/04/14 03:49:53;;;;;;;6.85;3.47;;;9.20;99.90;;;;;;4960596;29;20071;-95
2022/04/14 03:52:22;;;;;;;3.88;3.20;;;9.30;99.90;;;;;;4962526;28;20023;-96
2022/04/14 03:54:48;;;;;;;6.78;3.83;;;9.30;99.90;;;;;;4946324;28;20035;-96
2022/04/14 03:57:14;;;;;;;5.82;3.15;;;9.30;99.90;;;;;;4951118;29;20502;-96
2022/04/14 03:59:40;;;;;;;4.90;3.45;;;9.20;99.90;;;;;;4962217;28;20121;-96
2022/04/14 04:02:06;;;;;;;5.95;4.47;;;9.20;99.90;;;;;;4951097;29;20267;-96
2022/04/14 04:04:35;;;;;;;7.85;4.18;;;9.20;99.90;;;;;;4960286;28;20027;-96
2022/04/14 04:07:04;;;;;;;5.57;3.85;;;9.30;99.90;;;;;;4962949;28;20023;-95
2022/04/14 04:09:33;;;;;;;7.65;3.90;;;9.30;99.90;;;;;;4962634;28;20073;-96
2022/04/14 04:11:59;;;;;;;7.65;4.50;;;9.30;99.90;;;;;;4966987;28;20034;-96
2022/04/14 04:14:37;;;;;;;7.93;4.03;;;9.40;99.90;;;;;;4961945;29;20106;-96
2022/04/14 04:17:04;;;;;;;5.72;4.47;;;9.40;99.90;;;;;;4946340;29;20082;-95
2022/04/14 04:19:31;;;;;;;7.10;3.72;;;9.40;99.90;;;;;;4946568;29;20031;-96
2022/04/14 04:22:00;;;;;;;11.40;6.35;;;9.40;99.90;;;;;;4962052;28;20110;-96
2022/04/14 04:24:25;;;;;;;16.30;5.70;;;9.60;99.90;;;;;;4961319;29;20036;-95
2022/04/14 04:26:52;;;;;;;12.80;5.22;;;9.60;99.90;;;;;;4962565;28;20485;-95
2022/04/14 04:29:21;;;;;;;12.20;6.47;;;9.80;99.90;;;;;;4950471;29;20063;-95
2022/04/14 04:31:47;;;;;;;13.15;5.43;;;9.90;99.90;;;;;;4945348;28;20037;-95
2022/04/14 04:34:13;;;;;;;6.03;4.88;;;10.10;99.90;;;;;;4963049;28;20054;-95
2022/04/14 04:36:39;;;;;;;7.40;4.72;;;10.10;99.90;;;;;;4951832;28;20090;-96
2022/04/14 04:39:05;;;;;;;7.65;5.18;;;10.30;99.90;;;;;;4945598;29;20118;-96
2022/04/14 04:41:31;;;;;;;7.28;4.20;;;10.50;99.90;;;;;;4947374;29;20027;-96
2022/04/14 04:43:57;;;;;;;6.20;4.28;;;10.50;99.90;;;;;;4961513;28;20026;-90
2022/04/14 04:46:26;;;;;;;6.53;4.43;;;10.50;99.90;;;;;;4967104;28;20038;-90
2022/04/14 04:48:52;;;;;;;6.95;4.30;;;10.50;99.90;;;;;;4941545;29;20505;-91
2022/04/14 04:51:18;;;;;;;11.10;4.10;;;10.50;99.90;;;;;;4961725;28;20070;-92
2022/04/14 04:53:43;;;;;;;8.57;4.50;;;10.50;99.90;;;;;;4967851;28;20494;-94
2022/04/14 04:56:09;;;;;;;8.98;3.85;;;10.50;99.90;;;;;;4959776;28;20040;-85
2022/04/14 04:58:35;;;;;;;6.13;4.05;;;10.60;99.90;;;;;;4976451;28;20640;-93
2022/04/14 05:01:02;;;;;;;7.70;4.10;;;10.60;99.90;;;;;;4966653;28;20386;-93
2022/04/14 05:03:27;;;;;;;10.00;4.05;;;10.70;99.90;;;;;;4973531;28;20027;-93
2022/04/14 05:05:53;;;;;;;6.10;3.55;;;10.80;99.90;;;;;;4970116;28;20022;-93
2022/04/14 05:08:19;;;;;;;5.18;4.68;;;10.80;99.90;;;;;;4948002;29;20736;-93
2022/04/14 05:10:45;;;;;;;11.02;6.32;;;10.90;99.90;;;;;;4951062;28;20070;-92
2022/04/14 05:13:10;;;;;;;49.38;16.27;;;10.90;99.90;;;;;;4960333;29;20031;-93
2022/04/14 05:15:36;;;;;;;39.00;13.52;;;11.00;99.90;;;;;;4975891;28;20023;-94
2022/04/14 05:18:02;;;;;;;45.28;14.93;;;11.00;99.90;;;;;;4975395;28;20391;-94
2022/04/14 05:20:28;;;;;;;31.63;12.18;;;11.10;99.90;;;;;;4969004;28;20026;-91
2022/04/14 05:22:54;;;;;;;13.98;5.85;;;11.10;99.90;;;;;;4942097;29;20058;-92
2022/04/14 05:25:20;;;;;;;9.90;6.00;;;11.20;99.90;;;;;;4963603;28;20027;-92
2022/04/14 05:27:46;;;;;;;11.43;5.55;;;11.30;99.90;;;;;;4970974;28;20033;-93
2022/04/14 05:30:11;;;;;;;12.98;5.97;;;11.40;99.90;;;;;;4976703;28;20042;-93
2022/04/14 05:32:40;;;;;;;9.73;4.75;;;11.50;99.90;;;;;;4943405;29;20023;-92
2022/04/14 05:35:07;;;;;;;9.70;5.00;;;11.60;99.90;;;;;;4963875;28;20079;-91
2022/04/14 05:37:33;;;;;;;11.90;5.10;;;11.70;99.90;;;;;;4949217;28;20126;-91
2022/04/14 05:39:59;;;;;;;7.15;4.63;;;11.80;99.90;;;;;;4959362;28;20414;-91
2022/04/14 05:42:25;;;;;;;13.60;4.65;;;11.90;99.90;;;;;;4973310;28;20027;-91
2022/04/14 05:44:51;;;;;;;9.10;5.05;;;12.10;99.90;;;;;;4979742;28;20050;-92
2022/04/14 05:47:17;;;;;;;8.65;4.70;;;12.20;99.90;;;;;;4958582;28;20031;-91
2022/04/14 05:49:45;;;;;;;14.55;8.63;;;12.40;99.90;;;;;;4983404;28;20034;-92
2022/04/14 05:52:15;;;;;;;26.50;13.52;;;12.50;99.90;;;;;;4960857;29;20023;-92
2022/04/14 05:54:41;;;;;;;15.40;8.02;;;12.50;99.90;;;;;;4956727;28;20049;-92
2022/04/14 05:57:07;;;;;;;15.60;7.05;;;12.60;99.90;;;;;;4963346;28;20030;-93
2022/04/14 05:59:36;;;;;;;14.50;7.93;;;12.70;99.90;;;;;;4949767;28;20031;-92
2022/04/14 06:02:01;;;;;;;17.35;8.15;;;12.90;99.90;;;;;;4971958;28;20077;-93
2022/04/14 06:04:27;;;;;;;16.73;7.28;;;13.00;99.90;;;;;;4964283;28;20114;-92
2022/04/14 06:06:53;;;;;;;12.02;7.10;;;13.10;99.90;;;;;;4956495;29;20028;-91
2022/04/14 06:09:19;;;;;;;17.45;9.52;;;13.20;99.90;;;;;;4968086;28;20053;-92
2022/04/14 06:11:45;;;;;;;14.20;7.38;;;13.20;99.90;;;;;;4973634;28;20030;-93
2022/04/14 06:14:10;;;;;;;27.98;7.80;;;13.10;99.90;;;;;;4963071;28;20045;-92
2022/04/14 06:16:37;;;;;;;17.52;7.25;;;12.90;99.90;;;;;;4974185;28;20023;-91
2022/04/14 06:19:06;;;;;;;29.95;7.13;;;12.60;99.90;;;;;;4954479;29;20443;-92
2022/04/14 06:21:33;;;;;;;24.70;8.40;;;12.50;99.90;;;;;;4966500;28;20050;-91
2022/04/14 06:23:59;;;;;;;18.42;8.77;;;12.40;99.90;;;;;;4960519;28;20077;-93
2022/04/14 06:26:24;;;;;;;31.98;9.68;;;12.40;99.90;;;;;;4963640;28;20033;-87
2022/04/14 06:28:50;;;;;;;20.00;9.07;;;12.40;99.90;;;;;;4948614;28;20039;-86
2022/04/14 06:31:16;;;;;;;25.83;10.05;;;12.40;99.90;;;;;;4964571;28;20089;-84
2022/04/14 06:33:42;;;;;;;15.10;8.73;;;12.50;99.90;;;;;;4959077;28;20397;-86
2022/04/14 06:36:07;;;;;;;22.83;9.65;;;12.60;99.90;;;;;;4949303;28;20031;-92
2022/04/14 06:38:33;;;;;;;19.88;9.65;;;12.60;99.90;;;;;;4950411;28;20041;-90
2022/04/14 06:40:59;;;;;;;16.98;8.68;;;12.60;99.90;;;;;;4970143;28;20047;-92
2022/04/14 06:43:25;;;;;;;14.07;8.93;;;12.60;99.90;;;;;;4967946;28;20031;-89
2022/04/14 06:45:51;;;;;;;18.02;9.38;;;12.70;99.90;;;;;;4953681;28;20123;-92
2022/04/14 06:48:17;;;;;;;19.63;10.15;;;12.70;99.90;;;;;;4964426;28;20599;-84
2022/04/14 06:50:43;;;;;;;17.75;11.20;;;12.70;99.90;;;;;;4943752;28;20043;-88
2022/04/14 06:53:09;;;;;;;17.92;10.60;;;12.70;99.90;;;;;;4972750;28;20105;-88
2022/04/14 06:55:37;;;;;;;14.52;8.65;;;12.80;99.90;;;;;;4950798;28;20035;-89
2022/04/14 06:58:03;;;;;;;13.07;7.88;;;12.80;99.90;;;;;;4955477;28;20111;-89
2022/04/14 07:00:30;;;;;;;18.00;8.40;;;12.90;99.90;;;;;;4949208;28;20031;-90
2022/04/14 07:02:59;;;;;;;15.10;8.63;;;12.90;99.90;;;;;;4947626;29;20035;-90
2022/04/14 07:05:25;;;;;;;13.45;8.35;;;13.00;99.90;;;;;;4959393;28;20023;-90
2022/04/14 07:07:51;;;;;;;18.75;8.02;;;13.00;99.90;;;;;;4943499;29;20503;-89
2022/04/14 07:10:18;;;;;;;11.93;7.95;;;13.00;99.90;;;;;;4950452;28;20577;-89
2022/04/14 07:12:46;;;;;;;16.35;8.45;;;13.10;99.90;;;;;;4939586;29;20028;-87
2022/04/14 07:15:12;;;;;;;15.25;9.80;;;13.20;99.90;;;;;;4940118;28;20024;-89
2022/04/14 07:17:38;;;;;;;17.20;9.00;;;13.30;99.90;;;;;;4948656;28;20563;-84
2022/04/14 07:20:05;;;;;;;14.48;7.72;;;13.50;99.90;;;;;;4955152;28;20023;-84
2022/04/14 07:22:40;;;;;;;11.02;7.28;;;13.60;99.90;;;;;;4948569;28;20027;-84
2022/04/14 07:25:10;;;;;;;14.32;7.20;;;13.70;99.90;;;;;;4939902;28;20023;-83
2022/04/14 07:27:36;;;;;;;12.60;7.65;;;13.80;99.90;;;;;;4959475;28;20038;-85
2022/04/14 07:30:02;;;;;;;16.95;7.70;;;13.90;99.90;;;;;;4966345;28;20035;-82
2022/04/14 07:32:54;;;;;;;11.68;7.72;;;14.00;99.90;;;;;;4950646;29;20524;-84
2022/04/14 07:35:22;;;;;;;18.90;8.48;;;14.20;99.90;;;;;;4955669;28;20117;-82
2022/04/14 07:37:51;;;;;;;16.88;8.30;;;14.40;99.90;;;;;;4946674;29;20118;-83
2022/04/14 07:40:18;;;;;;;13.63;8.48;;;14.40;99.90;;;;;;4956803;28;20486;-83
2022/04/14 07:42:46;;;;;;;15.27;7.78;;;14.50;99.90;;;;;;4945576;28;20538;-83
2022/04/14 07:45:13;;;;;;;13.45;7.18;;;14.60;99.90;;;;;;4971322;28;20031;-84
2022/04/14 07:47:41;;;;;;;12.57;7.03;;;14.60;99.90;;;;;;4954344;28;20232;-83
2022/04/14 07:50:08;;;;;;;13.55;9.32;;;14.80;99.90;;;;;;4972275;28;20035;-84
2022/04/14 07:52:45;;;;;;;15.25;8.38;;;14.90;99.90;;;;;;4964576;28;20033;-82
2022/04/14 07:55:11;;;;;;;14.48;8.40;;;15.00;99.90;;;;;;4955189;28;20028;-83
2022/04/14 07:57:36;;;;;;;16.80;8.25;;;15.10;99.90;;;;;;4968870;28;20023;-83
2022/04/14 08:00:05;;;;;;;11.57;7.70;;;15.20;99.90;;;;;;4965126;28;20031;-83
2022/04/14 08:02:31;;;;;;;25.40;10.18;;;15.20;99.90;;;;;;4968575;28;20031;-83
2022/04/14 08:04:56;;;;;;;46.38;12.57;;;15.30;99.90;;;;;;4940313;28;20159;-83
2022/04/14 08:07:22;;;;;;;29.27;10.15;;;15.40;99.90;;;;;;4946554;28;20094;-84
2022/04/14 08:09:48;;;;;;;27.80;10.65;;;15.50;99.90;;;;;;4972134;28;20046;-83
2022/04/14 08:12:16;;;;;;;60.20;14.13;;;15.60;99.90;;;;;;4963900;28;20058;-83
2022/04/14 08:14:42;;;;;;;58.08;15.05;;;15.50;99.90;;;;;;4953308;28;20125;-85
2022/04/14 08:17:07;;;;;;;34.65;14.00;;;15.40;99.90;;;;;;4964904;28;20114;-85
2022/04/14 08:19:34;;;;;;;34.33;12.45;;;15.20;99.90;;;;;;4957311;28;20371;-86
2022/04/14 08:22:00;;;;;;;71.05;12.77;;;15.00;99.90;;;;;;4965346;28;20492;-86
2022/04/14 08:24:27;;;;;;;69.13;12.07;;;14.80;99.90;;;;;;4948031;28;20027;-87
2022/04/14 08:26:53;;;;;;;12.75;8.02;;;14.80;99.90;;;;;;4952177;28;20034;-87
2022/04/14 08:29:19;;;;;;;30.50;9.10;;;14.70;99.90;;;;;;4964343;28;20460;-86
2022/04/14 08:31:44;;;;;;;13.25;8.07;;;14.60;99.90;;;;;;4964692;28;20082;-85
2022/04/14 08:34:10;;;;;;;17.02;9.15;;;14.50;99.90;;;;;;4961311;28;20027;-86
2022/04/14 08:36:36;;;;;;;9.65;6.72;;;14.40;99.90;;;;;;4961418;28;20024;-89
2022/04/14 08:39:02;;;;;;;10.18;6.65;;;14.40;99.90;;;;;;4956923;28;20031;-84
2022/04/14 08:41:33;;;;;;;17.55;7.80;;;14.50;99.90;;;;;;4947045;28;20037;-84
2022/04/14 08:44:05;;;;;;;33.25;8.65;;;14.60;99.90;;;;;;4956498;28;20027;-86
2022/04/14 08:46:31;;;;;;;12.85;7.40;;;14.80;99.90;;;;;;4948528;28;20027;-85
2022/04/14 08:48:58;;;;;;;11.38;8.07;;;15.10;99.90;;;;;;4971677;28;20066;-86
2022/04/14 08:51:27;;;;;;;16.85;8.52;;;15.30;99.90;;;;;;4962103;28;20074;-85
2022/04/14 08:53:54;;;;;;;14.73;8.38;;;15.40;99.90;;;;;;4952194;29;20035;-85
2022/04/14 08:56:20;;;;;;;24.38;10.15;;;15.40;99.90;;;;;;4959545;28;20034;-85
2022/04/14 08:58:48;;;;;;;12.30;8.75;;;15.50;99.90;;;;;;4961422;28;20058;-85
2022/04/14 09:01:14;;;;;;;23.25;11.68;;;15.60;99.90;;;;;;4961270;28;20666;-86
2022/04/14 09:03:42;;;;;;;27.48;12.90;;;15.70;99.90;;;;;;4965373;28;20045;-85
2022/04/14 09:06:08;;;;;;;25.88;12.93;;;15.70;99.90;;;;;;4949817;28;20027;-85
2022/04/14 09:08:34;;;;;;;24.15;10.15;;;15.70;99.90;;;;;;4963890;28;20053;-85
2022/04/14 09:11:00;;;;;;;11.73;8.55;;;15.80;99.90;;;;;;4966051;28;20438;-86
2022/04/14 09:13:26;;;;;;;15.57;8.60;;;15.80;99.90;;;;;;4959077;28;20019;-84
2022/04/14 09:15:52;;;;;;;14.50;9.05;;;15.80;99.90;;;;;;4960404;28;20090;-85
2022/04/14 09:18:18;;;;;;;15.85;9.20;;;15.90;99.90;;;;;;4948410;28;20034;-85
2022/04/14 09:20:48;;;;;;;16.23;7.88;;;15.90;99.90;;;;;;4961322;28;20026;-85
2022/04/14 09:23:18;;;;;;;12.50;8.57;;;16.00;99.90;;;;;;4943699;28;20035;-84
2022/04/14 09:25:46;;;;;;;13.43;8.07;;;15.90;99.90;;;;;;4960795;28;20109;-85
2022/04/14 09:28:13;;;;;;;16.00;8.30;;;15.90;99.90;;;;;;4944967;28;20083;-85
2022/04/14 09:30:56;;;;;;;14.07;8.57;;;16.00;99.90;;;;;;4967671;28;20027;-85
2022/04/14 09:33:22;;;;;;;17.48;9.45;;;16.10;99.90;;;;;;4952016;28;20023;-85
2022/04/14 09:36:04;;;;;;;16.83;9.15;;;15.90;99.90;;;;;;4959089;28;20035;-84
2022/04/14 09:39:00;;;;;;;20.10;8.82;;;15.80;99.90;;;;;;4959029;28;20509;-85
2022/04/14 09:41:40;;;;;;;16.30;9.38;;;15.60;99.90;;;;;;4943321;28;20039;-86
2022/04/14 09:44:10;;;;;;;15.63;8.57;;;15.60;99.90;;;;;;4948858;28;20023;-85
2022/04/14 09:46:37;;;;;;;15.38;8.52;;;15.40;99.90;;;;;;4947294;28;20552;-85
2022/04/14 09:49:08;;;;;;;15.57;9.43;;;15.40;99.90;;;;;;4947020;29;20391;-85
2022/04/14 09:51:41;;;;;;;19.25;10.18;;;15.30;99.90;;;;;;4959742;28;20054;-85
2022/04/14 09:54:11;;;;;;;18.90;10.23;;;15.40;99.90;;;;;;4957319;28;20486;-85
2022/04/14 09:56:41;;;;;;;15.38;9.85;;;15.70;99.90;;;;;;4962200;28;20019;-84
2022/04/14 09:59:08;;;;;;;13.40;8.60;;;15.80;99.90;;;;;;4946955;29;20031;-84
2022/04/14 10:01:35;;;;;;;15.25;9.50;;;16.00;99.90;;;;;;4944403;28;20031;-84
2022/04/14 10:04:02;;;;;;;16.40;9.38;;;16.20;99.90;;;;;;4947036;28;20058;-84
2022/04/14 10:06:29;;;;;;;16.65;9.43;;;16.40;99.90;;;;;;4940324;28;20519;-85
2022/04/14 10:08:54;;;;;;;14.73;9.15;;;16.50;99.90;;;;;;4946069;28;20047;-84
2022/04/14 10:11:29;;;;;;;17.25;8.75;;;16.50;99.90;;;;;;4962380;28;20046;-85
2022/04/14 10:14:12;;;;;;;18.42;9.38;;;16.40;99.90;;;;;;4960483;28;20528;-85
2022/04/14 10:16:40;;;;;;;22.70;10.93;;;16.50;99.90;;;;;;4952244;28;20030;-85
2022/04/14 10:19:08;;;;;;;18.73;11.10;;;16.40;99.90;;;;;;4944815;28;20409;-84
2022/04/14 10:21:36;;;;;;;16.90;10.98;;;16.30;99.90;;;;;;4938693;28;20038;-84
2022/04/14 10:24:02;;;;;;;19.80;11.05;;;16.10;99.90;;;;;;4960353;28;20054;-85
2022/04/14 10:26:29;;;;;;;20.10;10.98;;;16.00;99.90;;;;;;4945666;28;20070;-85
2022/04/14 10:28:55;;;;;;;21.70;11.27;;;16.10;99.90;;;;;;4946746;28;20074;-85
2022/04/14 10:31:22;;;;;;;21.95;10.38;;;16.20;99.90;;;;;;4964044;28;20031;-85
2022/04/14 10:33:48;;;;;;;17.88;9.73;;;16.30;99.90;;;;;;4960672;28;20099;-84
2022/04/14 10:36:14;;;;;;;18.30;10.38;;;16.50;99.90;;;;;;4960937;28;20023;-85
2022/04/14 10:38:44;;;;;;;17.85;9.93;;;16.70;99.90;;;;;;4965427;28;20038;-85
2022/04/14 10:41:15;;;;;;;15.27;9.95;;;16.90;99.90;;;;;;4966358;28;20027;-83
2022/04/14 10:43:42;;;;;;;17.70;10.13;;;16.90;99.90;;;;;;4959023;28;20023;-85
2022/04/14 10:46:08;;;;;;;27.73;10.30;;;17.00;99.90;;;;;;4959412;28;20027;-84
2022/04/14 10:48:36;;;;;;;20.10;11.05;;;17.10;99.90;;;;;;4962912;28;20041;-84
2022/04/14 10:51:20;;;;;;;23.02;11.10;;;17.30;99.90;;;;;;4963968;28;20390;-83
2022/04/14 10:53:58;;;;;;;18.45;10.02;;;17.20;99.90;;;;;;4947501;28;20058;-83
2022/04/14 10:56:43;;;;;;;22.98;12.40;;;17.30;99.90;;;;;;4947546;28;20052;-85
2022/04/14 10:59:12;;;;;;;26.42;12.07;;;17.20;99.90;;;;;;4961679;28;20418;-85
2022/04/14 11:01:47;;;;;;;16.77;11.07;;;16.90;99.90;;;;;;4952029;28;20023;-84
2022/04/14 11:04:41;;;;;;;19.05;13.30;;;16.80;99.90;;;;;;4966461;28;20085;-84
2022/04/14 11:07:14;;;;;;;34.90;16.52;;;16.50;99.90;;;;;;4971343;28;20041;-84
2022/04/14 11:09:47;;;;;;;34.03;19.52;;;16.50;99.90;;;;;;4974463;28;20108;-85
2022/04/14 11:12:20;;;;;;;47.05;20.80;;;16.70;99.90;;;;;;4966132;28;20550;-84
2022/04/14 11:14:59;;;;;;;41.65;20.83;;;16.70;99.90;;;;;;4943944;28;20367;-83
2022/04/14 11:17:32;;;;;;;45.88;22.23;;;16.90;99.90;;;;;;4943287;29;20078;-85
2022/04/14 11:20:14;;;;;;;43.55;24.38;;;17.20;99.90;;;;;;4958361;28;20434;-84
2022/04/14 11:23:24;;;;;;;40.57;24.00;;;17.20;99.90;;;;;;4960467;28;20091;-84
2022/04/14 11:26:00;;;;;;;47.13;25.15;;;17.30;99.90;;;;;;4938704;28;20283;-84
2022/04/14 11:28:33;;;;;;;47.40;24.77;;;17.30;99.90;;;;;;4964495;28;20030;-84
2022/04/14 11:31:23;;;;;;;48.70;24.25;;;17.30;99.90;;;;;;4962722;28;20054;-84
2022/04/14 11:33:50;;;;;;;53.17;24.88;;;17.30;99.90;;;;;;4944598;28;20039;-83
2022/04/14 11:36:17;;;;;;;44.30;24.42;;;17.40;99.90;;;;;;4962100;28;20063;-83
2022/04/14 11:38:58;;;;;;;40.17;24.05;;;17.60;99.90;;;;;;4964183;28;20023;-82
2022/04/14 11:41:34;;;;;;;52.47;24.65;;;17.90;99.90;;;;;;4968544;28;20027;-83
2022/04/14 11:44:05;;;;;;;51.97;25.23;;;18.00;99.90;;;;;;4969584;28;20063;-83
2022/04/14 11:46:32;;;;;;;51.90;25.13;;;18.00;99.90;;;;;;4963755;28;20081;-83
2022/04/14 11:48:59;;;;;;;40.38;24.75;;;18.10;99.90;;;;;;4961719;28;20122;-83
2022/04/14 11:51:26;;;;;;;49.00;23.80;;;18.20;99.90;;;;;;4943652;28;20069;-84
2022/04/14 11:53:55;;;;;;;51.60;26.40;;;18.30;99.90;;;;;;4968610;28;20028;-84
2022/04/14 11:56:22;;;;;;;42.45;25.85;;;18.30;99.90;;;;;;4946830;28;20018;-84
2022/04/14 11:58:48;;;;;;;54.95;28.10;;;18.30;99.90;;;;;;4956442;28;20042;-83
2022/04/14 12:01:14;;;;;;;53.75;26.30;;;18.10;99.90;;;;;;4964563;28;20034;-84
2022/04/14 12:03:41;;;;;;;48.60;27.85;;;18.00;99.90;;;;;;4956735;28;20075;-84
2022/04/14 12:06:10;;;;;;;50.08;28.10;;;17.90;99.90;;;;;;4963841;28;20547;-83
2022/04/14 12:08:36;;;;;;;52.90;27.80;;;18.10;99.90;;;;;;4946717;28;20031;-83
2022/04/14 12:11:03;;;;;;;52.55;26.50;;;21.00;99.90;;;;;;4965822;28;20034;-84
2022/04/14 12:13:33;;;;;;;55.15;25.70;;;23.60;99.90;;;;;;4960113;28;20498;-83
2022/04/14 12:16:06;;;;;;;56.10;28.40;;;25.50;99.90;;;;;;4959213;28;20027;-84
2022/04/14 12:18:32;;;;;;;54.45;28.02;;;26.20;99.90;;;;;;4951398;28;20085;-83
2022/04/14 12:20:59;;;;;;;61.40;28.27;;;26.80;99.90;;;;;;4951563;28;20027;-92
2022/04/14 12:23:25;;;;;;;57.88;28.02;;;27.00;97.40;;;;;;4974531;28;20023;-86
2022/04/14 12:25:56;;;;;;;54.72;27.58;;;26.90;95.50;;;;;;4967441;28;20023;-84
2022/04/14 12:28:22;;;;;;;49.45;27.35;;;26.90;94.20;;;;;;4964287;28;20061;-87
2022/04/14 12:30:48;;;;;;;47.30;25.33;;;27.20;94.50;;;;;;4964334;28;20134;-82
2022/04/14 12:33:14;;;;;;;46.42;27.23;;;27.90;93.10;;;;;;4944662;28;20113;-84
2022/04/14 12:35:41;;;;;;;50.83;27.35;;;28.40;91.30;;;;;;4970074;28;20026;-83
2022/04/14 12:38:15;;;;;;;47.67;25.05;;;29.00;89.00;;;;;;4958345;28;20020;-83
2022/04/14 12:41:01;;;;;;;42.60;24.73;;;30.60;82.80;;;;;;4954064;28;20030;-88
2022/04/14 12:43:34;;;;;;;46.50;21.65;;;30.20;78.60;;;;;;4964409;28;20033;-88
2022/04/14 12:46:19;;;;;;;39.72;22.75;;;30.40;77.80;;;;;;4974309;28;20062;-90
2022/04/14 12:48:44;;;;;;;36.75;19.58;;;31.80;71.90;;;;;;4952818;28;20046;-83
2022/04/14 12:51:10;;;;;;;39.75;21.10;;;32.80;68.40;;;;;;4958959;28;20445;-83